sensor_id;sensor_type;location;lat;lon;timestamp;temperature;humidity
13616;DHT22;6879;51.368;6.782;2022-08-01T00:00:10;19.60;99.90
13616;DHT22;6879;51.368;6.782;2022-08-01T00:02:40;19.70;99.90
13616;DHT22;6879;51.368;6.782;2022-08-01T00:05:09;19.70;99.90
13616;DHT22;6879;51.368;6.782;2022-08-01T00:07:40;19.60;99.90
13616;DHT22;6879;51.368;6.782;2022-08-01T00:10:11;19.70;99.90
13616;DHT22;6879;51.368;6.782;2022-08-01T00:12:41;19.60;99.90
13616;DHT22;6879;51.368;6.782;2022-08-01T00:15:12;19.70;99.90
13616;DHT22;6879;51.368;6.782;2022-08-01T00:17:42;19.70;99.90
13616;DHT22;6879;51.368;6.782;2022-08-01T00:20:13;19.70;99.90
13616;DHT22;6879;51.368;6.782;2022-08-01T00:22:44;19.70;99.90
13616;DHT22;6879;51.368;6.782;2022-08-01T00:25:12;19.70;99.90
13616;DHT22;6879;51.368;6.782;2022-08-01T00:27:41;19.70;99.90
13616;DHT22;6879;51.368;6.782;2022-08-01T00:30:10;19.80;99.90
13616;DHT22;6879;51.368;6.782;2022-08-01T00:32:41;19.70;99.90
13616;DHT22;6879;51.368;6.782;2022-08-01T00:35:10;19.80;99.90
13616;DHT22;6879;51.368;6.782;2022-08-01T00:37:40;19.80;99.90
13616;DHT22;6879;51.368;6.782;2022-08-01T00:40:10;19.80;99.90
13616;DHT22;6879;51.368;6.782;2022-08-01T00:42:39;19.80;99.90
13616;DHT22;6879;51.368;6.782;2022-08-01T00:45:10;19.80;99.90
13616;DHT22;6879;51.368;6.782;2022-08-01T00:47:39;19.80;99.90
13616;DHT22;6879;51.368;6.782;2022-08-01T00:50:09;19.80;99.90
13616;DHT22;6879;51.368;6.782;2022-08-01T00:52:40;19.80;99.90
13616;DHT22;6879;51.368;6.782;2022-08-01T00:55:19;19.80;99.90
13616;DHT22;6879;51.368;6.782;2022-08-01T00:57:48;19.80;99.90
13616;DHT22;6879;51.368;6.782;2022-08-01T01:00:32;19.80;99.90
13616;DHT22;6879;51.368;6.782;2022-08-01T01:03:23;19.80;99.90
13616;DHT22;6879;51.368;6.782;2022-08-01T01:06:24;19.80;99.90
13616;DHT22;6879;51.368;6.782;2022-08-01T01:09:07;19.80;99.90
13616;DHT22;6879;51.368;6.782;2022-08-01T01:11:48;19.80;99.90
13616;DHT22;6879;51.368;6.782;2022-08-01T01:14:30;19.80;99.90
13616;DHT22;6879;51.368;6.782;2022-08-01T01:17:00;19.80;99.90
13616;DHT22;6879;51.368;6.782;2022-08-01T01:19:33;19.80;99.90
13616;DHT22;6879;51.368;6.782;2022-08-01T01:22:22;19.80;99.90
13616;DHT22;6879;51.368;6.782;2022-08-01T01:25:03;19.80;99.90
13616;DHT22;6879;51.368;6.782;2022-08-01T01:27:42;19.80;99.90
13616;DHT22;6879;51.368;6.782;2022-08-01T01:30:15;19.80;99.90
13616;DHT22;6879;51.368;6.782;2022-08-01T01:32:48;19.80;99.90
13616;DHT22;6879;51.368;6.782;2022-08-01T01:35:22;19.80;99.90
13616;DHT22;6879;51.368;6.782;2022-08-01T01:37:56;19.70;99.90
13616;DHT22;6879;51.368;6.782;2022-08-01T01:40:27;19.70;99.90
13616;DHT22;6879;51.368;6.782;2022-08-01T01:42:57;19.80;99.90
13616;DHT22;6879;51.368;6.782;2022-08-01T01:45:28;19.70;99.90
13616;DHT22;6879;51.368;6.782;2022-08-01T01:47:59;19.70;99.90
13616;DHT22;6879;51.368;6.782;2022-08-01T01:50:30;19.80;99.90
13616;DHT22;6879;51.368;6.782;2022-08-01T01:52:59;19.80;99.90
13616;DHT22;6879;51.368;6.782;2022-08-01T01:55:30;19.80;99.90
13616;DHT22;6879;51.368;6.782;2022-08-01T01:58:15;19.70;99.90
13616;DHT22;6879;51.368;6.782;2022-08-01T02:00:47;19.80;99.90
13616;DHT22;6879;51.368;6.782;2022-08-01T02:03:18;19.80;99.90
13616;DHT22;6879;51.368;6.782;2022-08-01T02:05:48;19.80;99.90
13616;DHT22;6879;51.368;6.782;2022-08-01T02:08:17;19.80;99.90
13616;DHT22;6879;51.368;6.782;2022-08-01T02:10:46;19.80;99.90
13616;DHT22;6879;51.368;6.782;2022-08-01T02:13:30;19.80;99.90
13616;DHT22;6879;51.368;6.782;2022-08-01T02:16:03;19.80;99.90
13616;DHT22;6879;51.368;6.782;2022-08-01T02:18:32;19.80;99.90
13616;DHT22;6879;51.368;6.782;2022-08-01T02:21:04;19.80;99.90
13616;DHT22;6879;51.368;6.782;2022-08-01T02:23:34;19.80;99.90
13616;DHT22;6879;51.368;6.782;2022-08-01T02:26:08;19.80;99.90
13616;DHT22;6879;51.368;6.782;2022-08-01T02:28:43;19.80;99.90
13616;DHT22;6879;51.368;6.782;2022-08-01T02:31:19;19.80;99.90
13616;DHT22;6879;51.368;6.782;2022-08-01T02:33:55;19.80;99.90
13616;DHT22;6879;51.368;6.782;2022-08-01T02:36:26;19.80;99.90
13616;DHT22;6879;51.368;6.782;2022-08-01T02:39:00;19.80;99.90
13616;DHT22;6879;51.368;6.782;2022-08-01T02:41:30;19.80;99.90
13616;DHT22;6879;51.368;6.782;2022-08-01T02:44:03;19.80;99.90
13616;DHT22;6879;51.368;6.782;2022-08-01T02:46:37;19.80;99.90
13616;DHT22;6879;51.368;6.782;2022-08-01T02:49:08;19.80;99.90
13616;DHT22;6879;51.368;6.782;2022-08-01T02:51:39;19.80;99.90
13616;DHT22;6879;51.368;6.782;2022-08-01T02:54:10;19.70;99.90
13616;DHT22;6879;51.368;6.782;2022-08-01T02:56:40;19.70;99.90
13616;DHT22;6879;51.368;6.782;2022-08-01T02:59:13;19.70;99.90
13616;DHT22;6879;51.368;6.782;2022-08-01T03:01:50;19.80;99.90
13616;DHT22;6879;51.368;6.782;2022-08-01T03:04:23;19.80;99.90
13616;DHT22;6879;51.368;6.782;2022-08-01T03:06:54;19.80;99.90
13616;DHT22;6879;51.368;6.782;2022-08-01T03:09:26;19.80;99.90
13616;DHT22;6879;51.368;6.782;2022-08-01T03:11:58;19.80;99.90
13616;DHT22;6879;51.368;6.782;2022-08-01T03:14:31;19.80;99.90
13616;DHT22;6879;51.368;6.782;2022-08-01T03:17:04;19.80;99.90
13616;DHT22;6879;51.368;6.782;2022-08-01T03:19:33;19.80;99.90
13616;DHT22;6879;51.368;6.782;2022-08-01T03:22:06;19.80;99.90
13616;DHT22;6879;51.368;6.782;2022-08-01T03:24:38;19.80;99.90
13616;DHT22;6879;51.368;6.782;2022-08-01T03:27:08;19.80;99.90
13616;DHT22;6879;51.368;6.782;2022-08-01T03:29:39;19.70;99.90
13616;DHT22;6879;51.368;6.782;2022-08-01T03:32:13;19.70;99.90
13616;DHT22;6879;51.368;6.782;2022-08-01T03:34:42;19.80;99.90
13616;DHT22;6879;51.368;6.782;2022-08-01T03:37:15;19.80;99.90
13616;DHT22;6879;51.368;6.782;2022-08-01T03:39:48;19.70;99.90
13616;DHT22;6879;51.368;6.782;2022-08-01T03:42:22;19.70;99.90
13616;DHT22;6879;51.368;6.782;2022-08-01T03:44:53;19.70;99.90
13616;DHT22;6879;51.368;6.782;2022-08-01T03:47:29;19.70;99.90
13616;DHT22;6879;51.368;6.782;2022-08-01T03:50:02;19.70;99.90
13616;DHT22;6879;51.368;6.782;2022-08-01T03:52:39;19.70;99.90
13616;DHT22;6879;51.368;6.782;2022-08-01T03:55:10;19.70;99.90
13616;DHT22;6879;51.368;6.782;2022-08-01T03:57:43;19.60;99.90
13616;DHT22;6879;51.368;6.782;2022-08-01T04:00:13;19.50;99.90
13616;DHT22;6879;51.368;6.782;2022-08-01T04:02:47;19.50;99.90
13616;DHT22;6879;51.368;6.782;2022-08-01T04:05:17;19.50;99.90
13616;DHT22;6879;51.368;6.782;2022-08-01T04:07:46;19.50;99.90
13616;DHT22;6879;51.368;6.782;2022-08-01T04:10:17;19.50;99.90
13616;DHT22;6879;51.368;6.782;2022-08-01T04:12:46;19.50;99.90
13616;DHT22;6879;51.368;6.782;2022-08-01T04:15:15;19.50;99.90
13616;DHT22;6879;51.368;6.782;2022-08-01T04:17:44;19.50;99.90
13616;DHT22;6879;51.368;6.782;2022-08-01T04:20:14;19.60;99.90
13616;DHT22;6879;51.368;6.782;2022-08-01T04:22:44;19.60;99.90
13616;DHT22;6879;51.368;6.782;2022-08-01T04:25:23;19.60;99.90
13616;DHT22;6879;51.368;6.782;2022-08-01T04:27:53;19.60;99.90
13616;DHT22;6879;51.368;6.782;2022-08-01T04:30:25;19.60;99.90
13616;DHT22;6879;51.368;6.782;2022-08-01T04:32:55;19.60;99.90
13616;DHT22;6879;51.368;6.782;2022-08-01T04:35:28;19.60;99.90
13616;DHT22;6879;51.368;6.782;2022-08-01T04:38:20;19.70;99.90
13616;DHT22;6879;51.368;6.782;2022-08-01T04:40:51;19.70;99.90
13616;DHT22;6879;51.368;6.782;2022-08-01T04:43:21;19.70;99.90
13616;DHT22;6879;51.368;6.782;2022-08-01T04:45:50;19.80;99.90
13616;DHT22;6879;51.368;6.782;2022-08-01T04:48:21;19.80;99.90
13616;DHT22;6879;51.368;6.782;2022-08-01T04:50:53;19.80;99.90
13616;DHT22;6879;51.368;6.782;2022-08-01T04:53:22;19.80;99.90
13616;DHT22;6879;51.368;6.782;2022-08-01T04:55:50;19.80;99.90
13616;DHT22;6879;51.368;6.782;2022-08-01T04:58:20;19.90;99.90
13616;DHT22;6879;51.368;6.782;2022-08-01T05:00:49;19.90;99.90
13616;DHT22;6879;51.368;6.782;2022-08-01T05:03:19;19.90;99.90
13616;DHT22;6879;51.368;6.782;2022-08-01T05:05:48;19.80;99.90
13616;DHT22;6879;51.368;6.782;2022-08-01T05:08:18;19.80;99.90
13616;DHT22;6879;51.368;6.782;2022-08-01T05:10:46;19.90;99.90
13616;DHT22;6879;51.368;6.782;2022-08-01T05:13:15;19.90;99.90
13616;DHT22;6879;51.368;6.782;2022-08-01T05:15:44;19.80;99.90
13616;DHT22;6879;51.368;6.782;2022-08-01T05:18:12;19.80;99.90
13616;DHT22;6879;51.368;6.782;2022-08-01T05:20:41;19.80;99.90
13616;DHT22;6879;51.368;6.782;2022-08-01T05:23:10;19.80;99.90
13616;DHT22;6879;51.368;6.782;2022-08-01T05:25:57;19.80;99.90
13616;DHT22;6879;51.368;6.782;2022-08-01T05:28:25;19.90;99.90
13616;DHT22;6879;51.368;6.782;2022-08-01T05:30:54;19.90;99.90
13616;DHT22;6879;51.368;6.782;2022-08-01T05:33:23;19.80;99.90
13616;DHT22;6879;51.368;6.782;2022-08-01T05:35:52;19.80;99.90
13616;DHT22;6879;51.368;6.782;2022-08-01T05:38:21;19.80;99.90
13616;DHT22;6879;51.368;6.782;2022-08-01T05:40:50;19.90;99.90
13616;DHT22;6879;51.368;6.782;2022-08-01T05:43:20;19.90;99.90
13616;DHT22;6879;51.368;6.782;2022-08-01T05:45:55;19.90;99.90
13616;DHT22;6879;51.368;6.782;2022-08-01T05:48:25;20.10;99.90
13616;DHT22;6879;51.368;6.782;2022-08-01T05:50:54;20.20;99.90
13616;DHT22;6879;51.368;6.782;2022-08-01T05:53:25;20.30;99.90
13616;DHT22;6879;51.368;6.782;2022-08-01T05:55:54;20.40;99.90
13616;DHT22;6879;51.368;6.782;2022-08-01T05:58:24;20.40;99.90
13616;DHT22;6879;51.368;6.782;2022-08-01T06:00:54;20.40;99.90
13616;DHT22;6879;51.368;6.782;2022-08-01T06:03:23;20.50;99.90
13616;DHT22;6879;51.368;6.782;2022-08-01T06:05:53;20.50;99.90
13616;DHT22;6879;51.368;6.782;2022-08-01T06:08:22;20.50;99.90
13616;DHT22;6879;51.368;6.782;2022-08-01T06:10:51;20.50;99.90
13616;DHT22;6879;51.368;6.782;2022-08-01T06:13:21;20.40;99.90
13616;DHT22;6879;51.368;6.782;2022-08-01T06:15:52;20.40;99.90
13616;DHT22;6879;51.368;6.782;2022-08-01T06:18:21;20.50;99.90
13616;DHT22;6879;51.368;6.782;2022-08-01T06:20:52;20.60;99.90
13616;DHT22;6879;51.368;6.782;2022-08-01T06:23:23;20.70;99.90
13616;DHT22;6879;51.368;6.782;2022-08-01T06:25:59;21.00;99.90
13616;DHT22;6879;51.368;6.782;2022-08-01T06:28:28;21.10;99.90
13616;DHT22;6879;51.368;6.782;2022-08-01T06:31:00;21.30;99.90
13616;DHT22;6879;51.368;6.782;2022-08-01T06:33:30;21.40;99.90
13616;DHT22;6879;51.368;6.782;2022-08-01T06:36:00;21.50;99.90
13616;DHT22;6879;51.368;6.782;2022-08-01T06:38:32;21.50;99.90
13616;DHT22;6879;51.368;6.782;2022-08-01T06:41:01;21.40;99.90
13616;DHT22;6879;51.368;6.782;2022-08-01T06:43:31;21.30;99.90
13616;DHT22;6879;51.368;6.782;2022-08-01T06:46:04;21.30;99.90
13616;DHT22;6879;51.368;6.782;2022-08-01T06:48:36;21.30;99.90
13616;DHT22;6879;51.368;6.782;2022-08-01T06:51:07;21.50;99.90
13616;DHT22;6879;51.368;6.782;2022-08-01T06:53:41;21.50;99.90
13616;DHT22;6879;51.368;6.782;2022-08-01T06:56:11;21.60;99.90
13616;DHT22;6879;51.368;6.782;2022-08-01T06:58:43;21.60;99.90
13616;DHT22;6879;51.368;6.782;2022-08-01T07:01:14;21.70;99.80
13616;DHT22;6879;51.368;6.782;2022-08-01T07:03:44;22.00;98.80
13616;DHT22;6879;51.368;6.782;2022-08-01T07:06:22;22.20;98.50
13616;DHT22;6879;51.368;6.782;2022-08-01T07:08:51;22.40;98.20
13616;DHT22;6879;51.368;6.782;2022-08-01T07:11:23;22.70;97.20
13616;DHT22;6879;51.368;6.782;2022-08-01T07:13:53;22.90;96.20
13616;DHT22;6879;51.368;6.782;2022-08-01T07:16:24;22.90;96.70
13616;DHT22;6879;51.368;6.782;2022-08-01T07:18:53;22.90;95.60
13616;DHT22;6879;51.368;6.782;2022-08-01T07:21:23;22.90;96.00
13616;DHT22;6879;51.368;6.782;2022-08-01T07:24:07;22.90;95.60
13616;DHT22;6879;51.368;6.782;2022-08-01T07:26:41;23.00;95.40
13616;DHT22;6879;51.368;6.782;2022-08-01T07:29:23;23.10;96.20
13616;DHT22;6879;51.368;6.782;2022-08-01T07:31:57;23.40;95.20
13616;DHT22;6879;51.368;6.782;2022-08-01T07:34:26;23.60;93.90
13616;DHT22;6879;51.368;6.782;2022-08-01T07:36:56;23.70;93.20
13616;DHT22;6879;51.368;6.782;2022-08-01T07:39:27;23.60;94.00
13616;DHT22;6879;51.368;6.782;2022-08-01T07:41:56;23.70;94.00
13616;DHT22;6879;51.368;6.782;2022-08-01T07:44:34;23.50;94.20
13616;DHT22;6879;51.368;6.782;2022-08-01T07:47:09;23.50;94.90
13616;DHT22;6879;51.368;6.782;2022-08-01T07:49:42;23.50;94.80
13616;DHT22;6879;51.368;6.782;2022-08-01T07:52:19;23.40;94.60
13616;DHT22;6879;51.368;6.782;2022-08-01T07:54:55;23.30;94.80
13616;DHT22;6879;51.368;6.782;2022-08-01T07:57:26;23.20;94.90
13616;DHT22;6879;51.368;6.782;2022-08-01T07:59:59;23.30;95.00
13616;DHT22;6879;51.368;6.782;2022-08-01T08:02:39;23.20;95.00
13616;DHT22;6879;51.368;6.782;2022-08-01T08:05:12;23.50;94.30
13616;DHT22;6879;51.368;6.782;2022-08-01T08:08:04;23.70;93.40
13616;DHT22;6879;51.368;6.782;2022-08-01T08:10:36;23.80;92.80
13616;DHT22;6879;51.368;6.782;2022-08-01T08:13:07;23.50;92.70
13616;DHT22;6879;51.368;6.782;2022-08-01T08:15:39;23.20;93.70
13616;DHT22;6879;51.368;6.782;2022-08-01T08:18:17;23.30;93.90
13616;DHT22;6879;51.368;6.782;2022-08-01T08:20:48;23.50;92.80
13616;DHT22;6879;51.368;6.782;2022-08-01T08:23:18;24.20;92.00
13616;DHT22;6879;51.368;6.782;2022-08-01T08:26:10;24.90;90.10
13616;DHT22;6879;51.368;6.782;2022-08-01T08:28:41;24.70;89.80
13616;DHT22;6879;51.368;6.782;2022-08-01T08:31:12;24.20;91.20
13616;DHT22;6879;51.368;6.782;2022-08-01T08:34:03;23.30;92.70
13616;DHT22;6879;51.368;6.782;2022-08-01T08:36:35;23.10;93.90
13616;DHT22;6879;51.368;6.782;2022-08-01T08:39:14;23.10;94.20
13616;DHT22;6879;51.368;6.782;2022-08-01T08:41:46;23.40;93.90
13616;DHT22;6879;51.368;6.782;2022-08-01T08:44:17;23.60;93.00
13616;DHT22;6879;51.368;6.782;2022-08-01T08:46:49;24.10;91.90
13616;DHT22;6879;51.368;6.782;2022-08-01T08:49:24;24.20;91.60
13616;DHT22;6879;51.368;6.782;2022-08-01T08:52:06;24.30;90.80
13616;DHT22;6879;51.368;6.782;2022-08-01T08:54:41;24.20;89.30
13616;DHT22;6879;51.368;6.782;2022-08-01T08:57:13;24.40;89.60
13616;DHT22;6879;51.368;6.782;2022-08-01T08:59:43;24.90;88.10
13616;DHT22;6879;51.368;6.782;2022-08-01T09:02:13;25.10;87.10
13616;DHT22;6879;51.368;6.782;2022-08-01T09:04:44;24.90;87.40
13616;DHT22;6879;51.368;6.782;2022-08-01T09:07:15;24.70;88.30
13616;DHT22;6879;51.368;6.782;2022-08-01T09:09:44;24.90;88.60
13616;DHT22;6879;51.368;6.782;2022-08-01T09:12:17;25.20;87.70
13616;DHT22;6879;51.368;6.782;2022-08-01T09:14:47;25.20;87.30
13616;DHT22;6879;51.368;6.782;2022-08-01T09:17:22;25.10;86.20
13616;DHT22;6879;51.368;6.782;2022-08-01T09:19:55;25.20;86.60
13616;DHT22;6879;51.368;6.782;2022-08-01T09:22:25;25.20;87.00
13616;DHT22;6879;51.368;6.782;2022-08-01T09:24:59;25.50;85.50
13616;DHT22;6879;51.368;6.782;2022-08-01T09:27:29;25.80;85.40
13616;DHT22;6879;51.368;6.782;2022-08-01T09:30:09;26.00;84.30
13616;DHT22;6879;51.368;6.782;2022-08-01T09:32:55;26.10;84.50
13616;DHT22;6879;51.368;6.782;2022-08-01T09:35:29;25.70;84.90
13616;DHT22;6879;51.368;6.782;2022-08-01T09:38:16;25.70;86.00
13616;DHT22;6879;51.368;6.782;2022-08-01T09:40:50;25.50;84.60
13616;DHT22;6879;51.368;6.782;2022-08-01T09:43:23;24.70;85.20
13616;DHT22;6879;51.368;6.782;2022-08-01T09:45:53;24.20;86.30
13616;DHT22;6879;51.368;6.782;2022-08-01T09:48:25;24.20;86.40
13616;DHT22;6879;51.368;6.782;2022-08-01T09:50:58;24.30;86.80
13616;DHT22;6879;51.368;6.782;2022-08-01T09:53:44;24.50;86.80
13616;DHT22;6879;51.368;6.782;2022-08-01T09:56:20;24.70;86.20
13616;DHT22;6879;51.368;6.782;2022-08-01T09:58:51;25.30;85.90
13616;DHT22;6879;51.368;6.782;2022-08-01T10:01:27;26.20;83.50
13616;DHT22;6879;51.368;6.782;2022-08-01T10:04:09;27.00;79.20
13616;DHT22;6879;51.368;6.782;2022-08-01T10:06:43;26.70;77.90
13616;DHT22;6879;51.368;6.782;2022-08-01T10:09:13;26.80;78.20
13616;DHT22;6879;51.368;6.782;2022-08-01T10:11:44;26.50;78.20
13616;DHT22;6879;51.368;6.782;2022-08-01T10:14:14;26.30;78.60
13616;DHT22;6879;51.368;6.782;2022-08-01T10:16:49;26.90;77.60
13616;DHT22;6879;51.368;6.782;2022-08-01T10:19:29;28.00;75.90
13616;DHT22;6879;51.368;6.782;2022-08-01T10:22:02;28.70;73.50
13616;DHT22;6879;51.368;6.782;2022-08-01T10:24:36;28.80;73.80
13616;DHT22;6879;51.368;6.782;2022-08-01T10:27:08;29.10;72.70
13616;DHT22;6879;51.368;6.782;2022-08-01T10:29:46;29.50;71.90
13616;DHT22;6879;51.368;6.782;2022-08-01T10:32:35;30.00;71.30
13616;DHT22;6879;51.368;6.782;2022-08-01T10:35:06;29.50;72.10
13616;DHT22;6879;51.368;6.782;2022-08-01T10:37:48;29.30;72.40
13616;DHT22;6879;51.368;6.782;2022-08-01T10:40:19;29.50;71.90
13616;DHT22;6879;51.368;6.782;2022-08-01T10:42:58;30.10;70.60
13616;DHT22;6879;51.368;6.782;2022-08-01T10:45:28;29.90;70.80
13616;DHT22;6879;51.368;6.782;2022-08-01T10:48:08;29.80;71.10
13616;DHT22;6879;51.368;6.782;2022-08-01T10:50:41;29.40;71.00
13616;DHT22;6879;51.368;6.782;2022-08-01T10:53:26;29.10;72.80
13616;DHT22;6879;51.368;6.782;2022-08-01T10:56:08;28.60;74.30
13616;DHT22;6879;51.368;6.782;2022-08-01T10:59:01;28.10;76.00
13616;DHT22;6879;51.368;6.782;2022-08-01T11:01:38;28.30;76.00
13616;DHT22;6879;51.368;6.782;2022-08-01T11:04:13;27.80;76.20
13616;DHT22;6879;51.368;6.782;2022-08-01T11:07:03;28.90;74.30
13616;DHT22;6879;51.368;6.782;2022-08-01T11:09:43;29.00;73.20
13616;DHT22;6879;51.368;6.782;2022-08-01T11:12:18;27.60;76.50
13616;DHT22;6879;51.368;6.782;2022-08-01T11:15:22;27.00;77.70
13616;DHT22;6879;51.368;6.782;2022-08-01T11:18:02;26.30;79.40
13616;DHT22;6879;51.368;6.782;2022-08-01T11:20:33;25.80;81.50
13616;DHT22;6879;51.368;6.782;2022-08-01T11:23:18;25.50;83.30
13616;DHT22;6879;51.368;6.782;2022-08-01T11:26:09;25.40;83.50
13616;DHT22;6879;51.368;6.782;2022-08-01T11:28:42;25.50;84.10
13616;DHT22;6879;51.368;6.782;2022-08-01T11:31:32;25.40;84.10
13616;DHT22;6879;51.368;6.782;2022-08-01T11:34:18;25.30;84.30
13616;DHT22;6879;51.368;6.782;2022-08-01T11:36:59;25.40;83.70
13616;DHT22;6879;51.368;6.782;2022-08-01T11:40:15;26.00;83.40
13616;DHT22;6879;51.368;6.782;2022-08-01T11:42:46;28.10;78.90
13616;DHT22;6879;51.368;6.782;2022-08-01T11:45:16;29.60;74.90
13616;DHT22;6879;51.368;6.782;2022-08-01T11:47:47;30.30;73.50
13616;DHT22;6879;51.368;6.782;2022-08-01T11:50:35;30.60;71.60
13616;DHT22;6879;51.368;6.782;2022-08-01T11:53:06;30.70;71.30
13616;DHT22;6879;51.368;6.782;2022-08-01T11:55:45;31.40;70.10
13616;DHT22;6879;51.368;6.782;2022-08-01T11:58:23;31.70;69.30
13616;DHT22;6879;51.368;6.782;2022-08-01T12:00:57;31.50;69.70
13616;DHT22;6879;51.368;6.782;2022-08-01T12:03:29;30.50;71.10
13616;DHT22;6879;51.368;6.782;2022-08-01T12:06:00;30.10;71.60
13616;DHT22;6879;51.368;6.782;2022-08-01T12:08:32;28.80;74.20
13616;DHT22;6879;51.368;6.782;2022-08-01T12:11:04;28.30;75.60
13616;DHT22;6879;51.368;6.782;2022-08-01T12:13:41;29.10;74.40
13616;DHT22;6879;51.368;6.782;2022-08-01T12:16:12;29.00;75.00
13616;DHT22;6879;51.368;6.782;2022-08-01T12:18:43;29.70;73.40
13616;DHT22;6879;51.368;6.782;2022-08-01T12:21:12;30.50;71.80
13616;DHT22;6879;51.368;6.782;2022-08-01T12:23:41;30.70;70.40
13616;DHT22;6879;51.368;6.782;2022-08-01T12:26:10;31.80;69.50
13616;DHT22;6879;51.368;6.782;2022-08-01T12:28:59;32.30;68.10
13616;DHT22;6879;51.368;6.782;2022-08-01T12:31:32;31.30;68.40
13616;DHT22;6879;51.368;6.782;2022-08-01T12:34:24;31.60;68.30
13616;DHT22;6879;51.368;6.782;2022-08-01T12:36:55;30.60;70.50
13616;DHT22;6879;51.368;6.782;2022-08-01T12:39:31;30.60;70.10
13616;DHT22;6879;51.368;6.782;2022-08-01T12:42:01;31.10;69.60
13616;DHT22;6879;51.368;6.782;2022-08-01T12:44:31;30.70;69.60
13616;DHT22;6879;51.368;6.782;2022-08-01T12:47:01;29.70;72.00
13616;DHT22;6879;51.368;6.782;2022-08-01T12:49:35;29.30;72.80
13616;DHT22;6879;51.368;6.782;2022-08-01T12:52:05;29.60;71.90
13616;DHT22;6879;51.368;6.782;2022-08-01T12:57:41;29.70;71.60
13616;DHT22;6879;51.368;6.782;2022-08-01T13:00:19;29.00;73.70
13616;DHT22;6879;51.368;6.782;2022-08-01T13:02:50;28.30;74.30
13616;DHT22;6879;51.368;6.782;2022-08-01T13:05:19;27.70;75.70
13616;DHT22;6879;51.368;6.782;2022-08-01T13:07:53;27.90;76.30
13616;DHT22;6879;51.368;6.782;2022-08-01T13:10:27;27.50;76.10
13616;DHT22;6879;51.368;6.782;2022-08-01T13:12:58;27.80;75.70
13616;DHT22;6879;51.368;6.782;2022-08-01T13:15:32;28.70;74.10
13616;DHT22;6879;51.368;6.782;2022-08-01T13:18:32;30.20;71.80
13616;DHT22;6879;51.368;6.782;2022-08-01T13:21:08;31.80;68.50
13616;DHT22;6879;51.368;6.782;2022-08-01T13:23:39;32.10;67.70
13616;DHT22;6879;51.368;6.782;2022-08-01T13:26:38;31.40;68.90
13616;DHT22;6879;51.368;6.782;2022-08-01T13:29:09;31.00;69.60
13616;DHT22;6879;51.368;6.782;2022-08-01T13:31:40;30.10;70.80
13616;DHT22;6879;51.368;6.782;2022-08-01T13:34:10;30.10;71.20
13616;DHT22;6879;51.368;6.782;2022-08-01T13:36:40;31.00;69.90
13616;DHT22;6879;51.368;6.782;2022-08-01T13:39:18;31.00;70.40
13616;DHT22;6879;51.368;6.782;2022-08-01T13:42:04;30.80;70.50
13616;DHT22;6879;51.368;6.782;2022-08-01T13:44:34;29.80;73.00
13616;DHT22;6879;51.368;6.782;2022-08-01T13:47:05;29.30;73.50
13616;DHT22;6879;51.368;6.782;2022-08-01T13:49:43;28.70;74.30
13616;DHT22;6879;51.368;6.782;2022-08-01T13:52:11;28.40;74.50
13616;DHT22;6879;51.368;6.782;2022-08-01T13:54:40;28.00;74.80
13616;DHT22;6879;51.368;6.782;2022-08-01T13:57:09;27.30;76.30
13616;DHT22;6879;51.368;6.782;2022-08-01T13:59:38;27.00;78.10
13616;DHT22;6879;51.368;6.782;2022-08-01T14:02:08;27.10;78.10
13616;DHT22;6879;51.368;6.782;2022-08-01T14:04:37;27.40;77.20
13616;DHT22;6879;51.368;6.782;2022-08-01T14:07:06;27.20;77.50
13616;DHT22;6879;51.368;6.782;2022-08-01T14:09:41;27.30;77.40
13616;DHT22;6879;51.368;6.782;2022-08-01T14:12:30;27.20;77.80
13616;DHT22;6879;51.368;6.782;2022-08-01T14:15:00;27.60;77.70
13616;DHT22;6879;51.368;6.782;2022-08-01T14:17:30;27.90;77.00
13616;DHT22;6879;51.368;6.782;2022-08-01T14:20:04;28.20;76.60
13616;DHT22;6879;51.368;6.782;2022-08-01T14:22:33;27.70;76.50
13616;DHT22;6879;51.368;6.782;2022-08-01T14:25:02;27.40;77.60
13616;DHT22;6879;51.368;6.782;2022-08-01T14:27:31;27.60;77.30
13616;DHT22;6879;51.368;6.782;2022-08-01T14:30:04;27.70;77.50
13616;DHT22;6879;51.368;6.782;2022-08-01T14:32:35;28.10;76.00
13616;DHT22;6879;51.368;6.782;2022-08-01T14:35:04;28.30;75.30
13616;DHT22;6879;51.368;6.782;2022-08-01T14:37:35;28.40;74.50
13616;DHT22;6879;51.368;6.782;2022-08-01T14:40:06;28.60;74.60
13616;DHT22;6879;51.368;6.782;2022-08-01T14:42:37;28.70;74.50
13616;DHT22;6879;51.368;6.782;2022-08-01T14:45:07;29.20;73.90
13616;DHT22;6879;51.368;6.782;2022-08-01T14:47:40;28.70;73.30
13616;DHT22;6879;51.368;6.782;2022-08-01T14:50:11;27.70;75.50
13616;DHT22;6879;51.368;6.782;2022-08-01T14:52:41;27.70;75.70
13616;DHT22;6879;51.368;6.782;2022-08-01T14:55:12;28.00;75.60
13616;DHT22;6879;51.368;6.782;2022-08-01T14:57:41;28.60;74.50
13616;DHT22;6879;51.368;6.782;2022-08-01T15:00:11;29.00;73.40
13616;DHT22;6879;51.368;6.782;2022-08-01T15:02:43;29.40;72.90
13616;DHT22;6879;51.368;6.782;2022-08-01T15:05:17;30.50;71.30
13616;DHT22;6879;51.368;6.782;2022-08-01T15:07:52;30.50;70.10
13616;DHT22;6879;51.368;6.782;2022-08-01T15:10:24;29.90;70.60
13616;DHT22;6879;51.368;6.782;2022-08-01T15:12:54;29.90;71.00
13616;DHT22;6879;51.368;6.782;2022-08-01T15:15:25;30.30;69.70
13616;DHT22;6879;51.368;6.782;2022-08-01T15:17:57;29.70;70.60
13616;DHT22;6879;51.368;6.782;2022-08-01T15:20:26;29.70;71.20
13616;DHT22;6879;51.368;6.782;2022-08-01T15:22:55;29.60;71.30
13616;DHT22;6879;51.368;6.782;2022-08-01T15:25:24;29.80;70.80
13616;DHT22;6879;51.368;6.782;2022-08-01T15:28:08;29.20;71.00
13616;DHT22;6879;51.368;6.782;2022-08-01T15:30:38;28.60;73.00
13616;DHT22;6879;51.368;6.782;2022-08-01T15:33:10;28.10;74.20
13616;DHT22;6879;51.368;6.782;2022-08-01T15:35:39;27.90;74.20
13616;DHT22;6879;51.368;6.782;2022-08-01T15:38:09;27.60;74.50
13616;DHT22;6879;51.368;6.782;2022-08-01T15:40:38;27.40;75.30
13616;DHT22;6879;51.368;6.782;2022-08-01T15:43:07;28.00;74.10
13616;DHT22;6879;51.368;6.782;2022-08-01T15:45:41;28.60;73.30
13616;DHT22;6879;51.368;6.782;2022-08-01T15:48:16;30.10;70.90
13616;DHT22;6879;51.368;6.782;2022-08-01T15:50:45;31.40;68.30
13616;DHT22;6879;51.368;6.782;2022-08-01T15:53:16;32.60;65.00
13616;DHT22;6879;51.368;6.782;2022-08-01T15:55:45;32.50;64.30
13616;DHT22;6879;51.368;6.782;2022-08-01T15:58:18;32.30;65.00
13616;DHT22;6879;51.368;6.782;2022-08-01T16:00:47;32.10;65.10
13616;DHT22;6879;51.368;6.782;2022-08-01T16:03:27;30.90;67.00
13616;DHT22;6879;51.368;6.782;2022-08-01T16:05:57;30.50;67.60
13616;DHT22;6879;51.368;6.782;2022-08-01T16:08:27;29.40;69.50
13616;DHT22;6879;51.368;6.782;2022-08-01T16:10:56;28.30;71.60
13616;DHT22;6879;51.368;6.782;2022-08-01T16:13:27;27.10;73.30
13616;DHT22;6879;51.368;6.782;2022-08-01T16:15:56;27.10;73.90
13616;DHT22;6879;51.368;6.782;2022-08-01T16:18:27;27.00;74.50
13616;DHT22;6879;51.368;6.782;2022-08-01T16:20:59;28.30;72.70
13616;DHT22;6879;51.368;6.782;2022-08-01T16:23:30;29.70;69.80
13616;DHT22;6879;51.368;6.782;2022-08-01T16:25:59;30.50;68.40